createdAt,value
2019-01-30T00:00:55.587Z,0.00
2019-01-30T00:01:55.574Z,0.00
2019-01-30T00:02:55.554Z,0.00
2019-01-30T00:03:55.545Z,0.00
2019-01-30T00:04:55.530Z,0.00
2019-01-30T00:05:55.518Z,0.00
2019-01-30T00:06:55.500Z,0.00
2019-01-30T00:07:55.488Z,0.00
2019-01-30T00:08:55.472Z,0.00
2019-01-30T00:09:55.458Z,0.00
2019-01-30T00:10:55.443Z,0.00
2019-01-30T00:11:55.430Z,0.00
2019-01-30T00:12:55.422Z,0.00
2019-01-30T00:13:55.400Z,0.00
2019-01-30T00:14:55.385Z,0.00
2019-01-30T00:15:56.499Z,0.00
2019-01-30T00:16:55.358Z,0.00
2019-01-30T00:17:55.337Z,0.00
2019-01-30T00:18:55.326Z,0.00
2019-01-30T00:19:55.311Z,0.00
2019-01-30T00:20:55.309Z,0.00
2019-01-30T00:21:55.282Z,0.00
2019-01-30T00:22:55.269Z,0.00
2019-01-30T00:23:55.253Z,0.00
2019-01-30T00:24:55.240Z,0.00
2019-01-30T00:25:55.225Z,0.00
2019-01-30T00:26:55.210Z,0.00
2019-01-30T00:27:55.195Z,0.00
2019-01-30T00:28:55.181Z,0.00
2019-01-30T00:30:03.864Z,0.00
2019-01-30T00:30:55.155Z,0.00
2019-01-30T00:31:55.159Z,0.00
2019-01-30T00:32:55.124Z,0.00
2019-01-30T00:33:55.114Z,0.00
2019-01-30T00:34:55.094Z,0.00
2019-01-30T00:35:55.086Z,0.00
2019-01-30T00:36:55.076Z,0.00
2019-01-30T00:37:55.048Z,0.00
2019-01-30T00:38:55.034Z,0.00
2019-01-30T00:39:55.021Z,0.00
2019-01-30T00:40:55.007Z,0.00
2019-01-30T00:41:54.990Z,0.00
2019-01-30T00:42:54.976Z,0.00
2019-01-30T00:43:54.964Z,0.00
2019-01-30T00:44:54.945Z,0.00
2019-01-30T00:45:54.932Z,0.00
2019-01-30T00:46:54.918Z,0.00
2019-01-30T00:47:54.905Z,0.00
2019-01-30T00:48:54.895Z,0.00
2019-01-30T00:49:54.879Z,0.00
2019-01-30T00:50:54.861Z,0.00
2019-01-30T00:51:54.848Z,0.00
2019-01-30T00:52:54.837Z,0.00
2019-01-30T00:53:54.827Z,0.00
2019-01-30T00:54:54.804Z,0.00
2019-01-30T00:55:54.789Z,0.00
2019-01-30T00:56:54.777Z,0.00
2019-01-30T00:57:54.766Z,0.00
2019-01-30T00:58:54.748Z,0.00
2019-01-30T00:59:54.732Z,0.00
2019-01-30T01:00:54.719Z,0.00
2019-01-30T01:01:54.702Z,0.00
2019-01-30T01:02:54.691Z,0.00
2019-01-30T01:03:54.676Z,0.00
2019-01-30T01:04:54.661Z,0.00
2019-01-30T01:05:54.649Z,0.00
2019-01-30T01:06:54.630Z,0.00
2019-01-30T01:07:54.620Z,0.00
2019-01-30T01:08:54.603Z,0.00
2019-01-30T01:09:54.608Z,0.00
2019-01-30T01:10:54.578Z,0.00
2019-01-30T01:11:54.563Z,0.00
2019-01-30T01:12:54.548Z,0.00
2019-01-30T01:13:54.533Z,0.00
2019-01-30T01:14:54.521Z,0.00
2019-01-30T01:15:54.509Z,0.00
2019-01-30T01:16:54.493Z,0.00
2019-01-30T01:17:54.479Z,0.00
2019-01-30T01:18:54.464Z,0.00
2019-01-30T01:19:54.450Z,0.00
2019-01-30T01:20:54.437Z,0.00
2019-01-30T01:21:54.415Z,0.00
2019-01-30T01:22:54.399Z,0.00
2019-01-30T01:23:54.396Z,0.00
2019-01-30T01:24:54.382Z,0.00
2019-01-30T01:25:54.369Z,0.00
2019-01-30T01:26:54.354Z,0.00
2019-01-30T01:27:54.339Z,0.00
2019-01-30T01:28:54.345Z,0.00
2019-01-30T01:29:54.313Z,0.00
2019-01-30T01:30:54.304Z,0.00
2019-01-30T01:31:54.288Z,0.00
2019-01-30T01:32:54.271Z,0.00
2019-01-30T01:33:54.258Z,0.00
2019-01-30T01:34:54.243Z,0.00
2019-01-30T01:35:54.230Z,0.00
2019-01-30T01:36:54.220Z,0.00
2019-01-30T01:37:54.203Z,0.00
2019-01-30T01:38:54.189Z,0.00
2019-01-30T01:39:54.175Z,0.00
2019-01-30T01:40:54.170Z,0.00
2019-01-30T01:41:54.150Z,0.00
2019-01-30T01:42:54.133Z,0.00
2019-01-30T01:43:54.117Z,0.00
2019-01-30T01:44:54.105Z,0.00
2019-01-30T01:45:54.092Z,0.00
2019-01-30T01:46:54.078Z,0.00
2019-01-30T01:47:54.062Z,0.00
2019-01-30T01:48:54.044Z,0.00
2019-01-30T01:49:54.032Z,0.00
2019-01-30T01:50:54.023Z,0.00
2019-01-30T01:51:54.007Z,0.00
2019-01-30T01:52:53.997Z,0.00
2019-01-30T01:53:53.982Z,0.00
2019-01-30T01:54:53.967Z,0.00
2019-01-30T01:55:54.061Z,0.00
2019-01-30T01:56:53.941Z,0.00
2019-01-30T01:57:53.933Z,0.00
2019-01-30T01:58:53.912Z,0.00
2019-01-30T01:59:53.900Z,0.00
2019-01-30T02:00:53.889Z,0.00
2019-01-30T02:01:53.862Z,0.00
2019-01-30T02:02:53.858Z,0.00
2019-01-30T02:03:53.844Z,0.00
2019-01-30T02:04:53.832Z,0.00
2019-01-30T02:05:53.819Z,0.00
2019-01-30T02:06:53.804Z,0.00
2019-01-30T02:07:53.790Z,0.00
2019-01-30T02:08:53.779Z,0.00
2019-01-30T02:09:53.765Z,0.00
2019-01-30T02:10:53.750Z,0.00
2019-01-30T02:11:53.738Z,0.00
2019-01-30T02:12:53.724Z,0.00
2019-01-30T02:13:53.713Z,0.00
2019-01-30T02:14:53.693Z,0.00
2019-01-30T02:15:53.683Z,0.00
2019-01-30T02:16:53.680Z,0.00
2019-01-30T02:17:53.664Z,0.00
2019-01-30T02:18:53.640Z,0.00
2019-01-30T02:19:53.629Z,0.00
2019-01-30T02:20:53.617Z,0.00
2019-01-30T02:21:53.603Z,0.00
2019-01-30T02:22:53.587Z,0.00
2019-01-30T02:23:53.579Z,0.00
2019-01-30T02:24:53.563Z,0.00
2019-01-30T02:25:53.551Z,0.00
2019-01-30T02:26:53.534Z,0.00
2019-01-30T02:27:53.517Z,0.00
2019-01-30T02:28:53.508Z,0.00
2019-01-30T02:29:53.488Z,0.00
2019-01-30T02:30:53.488Z,0.00
2019-01-30T02:31:53.470Z,0.00
2019-01-30T02:32:53.457Z,0.00
2019-01-30T02:33:53.453Z,0.00
2019-01-30T02:34:53.428Z,0.00
2019-01-30T02:35:53.417Z,0.00
2019-01-30T02:36:53.404Z,0.00
2019-01-30T02:37:53.391Z,0.00
2019-01-30T02:38:53.376Z,0.00
2019-01-30T02:39:53.363Z,0.00
2019-01-30T02:40:53.357Z,0.00
2019-01-30T02:41:53.338Z,0.00
2019-01-30T02:42:53.329Z,0.00
2019-01-30T02:43:53.309Z,0.00
2019-01-30T02:44:53.295Z,0.00
2019-01-30T02:45:53.282Z,0.00
2019-01-30T02:46:53.266Z,0.00
2019-01-30T02:47:53.253Z,0.00
2019-01-30T02:48:53.242Z,0.00
2019-01-30T02:49:53.227Z,0.00
2019-01-30T02:50:53.211Z,0.00
2019-01-30T02:51:53.201Z,0.00
2019-01-30T02:52:53.189Z,0.00
2019-01-30T02:53:53.162Z,0.00
2019-01-30T02:54:53.159Z,0.00
2019-01-30T02:55:53.156Z,0.00
2019-01-30T02:56:53.135Z,0.00
2019-01-30T02:57:53.118Z,0.00
2019-01-30T02:58:53.108Z,0.00
2019-01-30T02:59:53.090Z,0.00
2019-01-30T03:00:59.361Z,0.00
2019-01-30T03:01:53.064Z,0.00
2019-01-30T03:02:53.053Z,0.00
2019-01-30T03:03:53.038Z,0.00
2019-01-30T03:04:53.024Z,0.00
2019-01-30T03:05:53.009Z,0.00
2019-01-30T03:06:52.987Z,0.00
2019-01-30T03:07:52.981Z,0.00
2019-01-30T03:08:52.970Z,0.00
2019-01-30T03:09:52.965Z,0.00
2019-01-30T03:10:52.940Z,0.00
2019-01-30T03:11:52.929Z,0.00
2019-01-30T03:12:52.911Z,0.00
2019-01-30T03:13:52.906Z,0.00
2019-01-30T03:14:52.876Z,0.00
2019-01-30T03:15:52.870Z,0.00
2019-01-30T03:16:52.871Z,0.00
2019-01-30T03:17:52.846Z,0.00
2019-01-30T03:18:52.832Z,0.00
2019-01-30T03:19:52.818Z,0.00
2019-01-30T03:20:52.805Z,0.00
2019-01-30T03:21:52.794Z,0.00
2019-01-30T03:22:52.794Z,0.00
2019-01-30T03:23:52.779Z,0.00
2019-01-30T03:24:52.755Z,0.00
2019-01-30T03:25:52.738Z,0.00
2019-01-30T03:26:52.726Z,0.00
2019-01-30T03:27:52.710Z,0.00
2019-01-30T03:28:52.700Z,0.00
2019-01-30T03:29:52.684Z,0.00
2019-01-30T03:30:52.672Z,0.00
2019-01-30T03:31:52.662Z,0.00
2019-01-30T03:32:52.644Z,0.00
2019-01-30T03:33:52.630Z,0.00
2019-01-30T03:34:52.618Z,0.00
2019-01-30T03:35:52.622Z,0.00
2019-01-30T03:36:52.587Z,0.00
2019-01-30T03:37:52.578Z,0.00
2019-01-30T03:38:52.564Z,0.00
2019-01-30T03:39:52.550Z,0.00
2019-01-30T03:40:52.539Z,0.00
2019-01-30T03:41:52.548Z,0.00
2019-01-30T03:42:52.509Z,0.00
2019-01-30T03:43:52.497Z,0.00
2019-01-30T03:44:52.485Z,0.00
2019-01-30T03:45:52.469Z,0.00
2019-01-30T03:46:52.496Z,0.00
2019-01-30T03:47:52.494Z,0.00
2019-01-30T03:48:52.443Z,0.00
2019-01-30T03:49:52.417Z,0.00
2019-01-30T03:50:52.404Z,0.00
2019-01-30T03:51:52.390Z,0.00
2019-01-30T03:52:52.383Z,0.00
2019-01-30T03:53:52.371Z,0.00
2019-01-30T03:54:52.349Z,0.00
2019-01-30T03:55:52.337Z,0.00
2019-01-30T03:56:52.326Z,0.00
2019-01-30T03:57:52.311Z,0.00
2019-01-30T03:58:52.297Z,0.00
2019-01-30T03:59:52.285Z,0.00
2019-01-30T04:00:52.295Z,0.00
2019-01-30T04:01:52.278Z,0.00
2019-01-30T04:02:52.243Z,0.00
2019-01-30T04:03:52.229Z,0.00
2019-01-30T04:04:52.218Z,0.00
2019-01-30T04:05:52.204Z,0.00
2019-01-30T04:06:52.192Z,0.00
2019-01-30T04:07:52.179Z,0.00
2019-01-30T04:08:52.166Z,0.00
2019-01-30T04:09:52.154Z,0.00
2019-01-30T04:10:52.144Z,0.00
2019-01-30T04:11:52.123Z,0.00
2019-01-30T04:12:52.115Z,0.00
2019-01-30T04:13:52.100Z,0.00
2019-01-30T04:14:52.097Z,0.00
2019-01-30T04:15:52.073Z,0.00
2019-01-30T04:16:52.063Z,0.00
2019-01-30T04:17:52.047Z,0.00
2019-01-30T04:18:52.034Z,0.00
2019-01-30T04:19:52.028Z,0.00
2019-01-30T04:20:52.030Z,0.00
2019-01-30T04:21:52.000Z,0.00
2019-01-30T04:22:51.981Z,0.00
2019-01-30T04:23:51.971Z,0.00
2019-01-30T04:24:51.954Z,0.00
2019-01-30T04:25:51.947Z,0.00
2019-01-30T04:26:51.930Z,0.00
2019-01-30T04:27:51.928Z,0.00
2019-01-30T04:28:51.893Z,0.00
2019-01-30T04:29:51.892Z,0.00
2019-01-30T04:30:51.876Z,0.00
2019-01-30T04:31:51.867Z,0.00
2019-01-30T04:32:51.857Z,0.00
2019-01-30T04:33:51.837Z,0.00
2019-01-30T04:34:51.822Z,0.00
2019-01-30T04:35:51.816Z,0.00
2019-01-30T04:36:51.800Z,0.00
2019-01-30T04:37:51.847Z,0.00
2019-01-30T04:38:51.775Z,0.00
2019-01-30T04:39:51.759Z,0.00
2019-01-30T04:40:51.749Z,0.00
2019-01-30T04:41:51.734Z,0.00
2019-01-30T04:42:51.719Z,0.00
2019-01-30T04:43:51.707Z,0.00
2019-01-30T04:44:51.696Z,0.00
2019-01-30T04:45:51.682Z,0.00
2019-01-30T04:46:51.666Z,0.00
2019-01-30T04:47:51.655Z,0.00
2019-01-30T04:48:51.641Z,0.00
2019-01-30T04:49:51.630Z,0.00
2019-01-30T04:50:51.604Z,0.00
2019-01-30T04:51:51.602Z,0.00
2019-01-30T04:52:51.688Z,0.00
2019-01-30T04:53:51.577Z,0.00
2019-01-30T04:54:51.556Z,0.00
2019-01-30T04:55:51.558Z,0.00
2019-01-30T04:56:51.539Z,0.00
2019-01-30T04:57:51.524Z,0.00
2019-01-30T04:58:51.508Z,0.00
2019-01-30T04:59:51.499Z,0.00
2019-01-30T05:00:51.485Z,0.00
2019-01-30T05:01:51.475Z,0.00
2019-01-30T05:02:51.461Z,0.00
2019-01-30T05:03:51.443Z,0.00
2019-01-30T05:04:51.435Z,0.00
2019-01-30T05:05:51.420Z,0.00
2019-01-30T05:06:51.416Z,0.00
2019-01-30T05:07:51.397Z,0.00
2019-01-30T05:08:51.382Z,0.00
2019-01-30T05:09:51.369Z,0.00
2019-01-30T05:10:51.356Z,0.00
2019-01-30T05:11:51.349Z,0.00
2019-01-30T05:12:51.331Z,0.00
2019-01-30T05:13:51.318Z,0.00
2019-01-30T05:14:51.310Z,0.00
2019-01-30T05:15:51.316Z,0.00
2019-01-30T05:16:51.280Z,0.00
2019-01-30T05:17:51.262Z,0.00
2019-01-30T05:18:51.251Z,0.00
2019-01-30T05:19:51.241Z,0.00
2019-01-30T05:20:51.225Z,0.00
2019-01-30T05:21:51.213Z,0.00
2019-01-30T05:22:51.196Z,0.00
2019-01-30T05:23:51.189Z,0.00
2019-01-30T05:24:51.175Z,0.00
2019-01-30T05:25:51.161Z,0.00
2019-01-30T05:26:51.149Z,0.00
2019-01-30T05:27:51.185Z,0.00
2019-01-30T05:28:51.126Z,0.00
2019-01-30T05:29:51.118Z,0.00
2019-01-30T05:30:51.089Z,0.00
2019-01-30T05:32:00.916Z,0.00
2019-01-30T05:32:51.070Z,0.00
2019-01-30T05:33:51.057Z,0.00
2019-01-30T05:34:51.037Z,0.00
2019-01-30T05:35:51.030Z,0.00
2019-01-30T05:36:51.013Z,0.00
2019-01-30T05:37:51.511Z,0.00
2019-01-30T05:38:50.997Z,0.00
2019-01-30T05:39:50.974Z,0.00
2019-01-30T05:40:50.965Z,0.00
2019-01-30T05:41:50.954Z,0.00
2019-01-30T05:42:50.937Z,0.00
2019-01-30T05:43:50.923Z,0.00
2019-01-30T05:44:50.912Z,0.00
2019-01-30T05:45:50.919Z,0.00
2019-01-30T05:46:50.885Z,0.00
2019-01-30T05:47:50.878Z,0.00
2019-01-30T05:48:50.858Z,0.00
2019-01-30T05:49:50.845Z,0.00
2019-01-30T05:50:50.832Z,0.00
2019-01-30T05:51:50.827Z,0.00
2019-01-30T05:52:50.804Z,0.00
2019-01-30T05:53:50.794Z,0.00
2019-01-30T05:54:50.777Z,0.00
2019-01-30T05:55:50.789Z,0.00
2019-01-30T05:56:50.756Z,0.00
2019-01-30T05:57:50.735Z,0.00
2019-01-30T05:58:50.729Z,0.00
2019-01-30T05:59:50.721Z,0.00
2019-01-30T06:00:50.701Z,0.00
2019-01-30T06:01:50.683Z,0.00
2019-01-30T06:02:50.680Z,0.00
2019-01-30T06:03:50.708Z,0.00
2019-01-30T06:04:50.653Z,0.00
2019-01-30T06:05:50.718Z,0.00
2019-01-30T06:06:50.631Z,0.00
2019-01-30T06:07:50.606Z,0.00
2019-01-30T06:08:50.592Z,0.00
2019-01-30T06:09:50.578Z,0.00
2019-01-30T06:10:50.569Z,0.00
2019-01-30T06:11:50.552Z,0.00
2019-01-30T06:12:50.541Z,0.00
2019-01-30T06:13:50.527Z,0.00
2019-01-30T06:14:50.512Z,0.00
2019-01-30T06:15:50.499Z,0.00
2019-01-30T06:16:50.475Z,0.00
2019-01-30T06:17:50.484Z,0.00
2019-01-30T06:18:50.511Z,0.00
2019-01-30T06:19:50.446Z,0.00
2019-01-30T06:20:50.435Z,0.00
2019-01-30T06:21:50.428Z,0.00
2019-01-30T06:22:50.451Z,0.00
2019-01-30T06:23:50.398Z,0.00
2019-01-30T06:24:50.380Z,4.00
2019-01-30T06:25:50.365Z,4.00
2019-01-30T06:26:50.355Z,0.00
2019-01-30T06:27:50.336Z,4.00
2019-01-30T06:28:50.344Z,4.00
2019-01-30T06:29:50.314Z,8.00
2019-01-30T06:30:50.312Z,8.00
2019-01-30T06:31:50.304Z,8.00
2019-01-30T06:32:50.275Z,12.00
2019-01-30T06:33:50.264Z,12.00
2019-01-30T06:34:50.248Z,16.00
2019-01-30T06:35:50.291Z,16.00
2019-01-30T06:36:50.223Z,20.00
2019-01-30T06:37:50.208Z,24.00
2019-01-30T06:38:50.197Z,28.00
2019-01-30T06:39:50.183Z,36.00
2019-01-30T06:40:50.167Z,48.00
2019-01-30T06:41:50.167Z,56.00
2019-01-30T06:42:50.147Z,56.00
2019-01-30T06:43:50.143Z,68.00
2019-01-30T06:44:50.124Z,80.00
2019-01-30T06:45:50.110Z,92.00
2019-01-30T06:46:50.098Z,104.00
2019-01-30T06:47:50.080Z,124.00
2019-01-30T06:48:50.066Z,136.00
2019-01-30T06:49:50.046Z,152.00
2019-01-30T06:50:50.030Z,172.00
2019-01-30T06:51:50.028Z,192.00
2019-01-30T06:52:50.014Z,208.00
2019-01-30T06:53:49.999Z,224.00
2019-01-30T06:54:49.984Z,240.00
2019-01-30T06:55:49.973Z,260.00
2019-01-30T06:56:49.965Z,276.00
2019-01-30T06:57:49.947Z,292.00
2019-01-30T06:58:49.933Z,316.00
2019-01-30T06:59:49.918Z,340.00
2019-01-30T07:00:49.920Z,372.00
2019-01-30T07:01:49.925Z,400.00
2019-01-30T07:02:49.881Z,432.00
2019-01-30T07:03:49.869Z,468.00
2019-01-30T07:04:49.857Z,500.00
2019-01-30T07:05:49.844Z,540.00
2019-01-30T07:06:49.871Z,580.00
2019-01-30T07:07:49.817Z,628.00
2019-01-30T07:08:49.844Z,684.00
2019-01-30T07:09:52.237Z,748.00
2019-01-30T07:10:49.781Z,820.00
2019-01-30T07:11:49.762Z,896.00
2019-01-30T07:12:49.755Z,976.00
2019-01-30T07:13:49.736Z,1064.00
2019-01-30T07:14:49.729Z,1148.00
2019-01-30T07:15:49.706Z,1228.00
2019-01-30T07:16:49.701Z,1304.00
2019-01-30T07:17:49.687Z,1380.00
2019-01-30T07:18:49.675Z,1452.00
2019-01-30T07:19:49.663Z,1524.00
2019-01-30T07:20:49.649Z,1604.00
2019-01-30T07:21:49.629Z,1692.00
2019-01-30T07:22:49.636Z,1772.00
2019-01-30T07:23:49.615Z,1844.00
2019-01-30T07:24:49.600Z,1916.00
2019-01-30T07:25:49.587Z,1972.00
2019-01-30T07:26:49.574Z,2016.00
2019-01-30T07:27:49.562Z,2056.00
2019-01-30T07:28:49.549Z,2092.00
2019-01-30T07:29:49.540Z,2132.00
2019-01-30T07:30:49.511Z,2184.00
2019-01-30T07:31:49.509Z,2256.00
2019-01-30T07:32:49.486Z,2348.00
2019-01-30T07:33:49.481Z,2456.00
2019-01-30T07:34:49.466Z,2572.00
2019-01-30T07:35:49.461Z,2676.00
2019-01-30T07:36:49.443Z,2784.00
2019-01-30T07:37:49.437Z,2892.00
2019-01-30T07:38:49.462Z,2968.00
2019-01-30T07:39:49.415Z,3048.00
2019-01-30T07:40:49.400Z,3112.00
2019-01-30T07:41:49.387Z,3160.00
2019-01-30T07:42:49.376Z,3220.00
2019-01-30T07:43:49.371Z,3280.00
2019-01-30T07:44:50.733Z,3344.00
2019-01-30T07:45:49.385Z,3452.00
2019-01-30T07:46:49.332Z,3536.00
2019-01-30T07:47:49.328Z,3656.00
2019-01-30T07:48:49.309Z,3784.00
2019-01-30T07:49:49.331Z,3928.00
2019-01-30T07:50:49.298Z,4092.00
2019-01-30T07:51:49.269Z,4280.00
2019-01-30T07:52:49.254Z,4480.00
2019-01-30T07:53:49.297Z,4676.00
2019-01-30T07:54:49.235Z,4872.00
2019-01-30T07:55:49.223Z,5072.00
2019-01-30T07:56:49.211Z,5260.00
2019-01-30T07:57:49.196Z,5424.00
2019-01-30T07:58:49.205Z,5564.00
2019-01-30T07:59:51.778Z,5692.00
2019-01-30T08:00:49.170Z,5812.00
2019-01-30T08:01:49.166Z,5916.00
2019-01-30T08:02:53.538Z,6024.00
2019-01-30T08:03:49.134Z,6128.00
2019-01-30T08:04:49.124Z,6232.00
2019-01-30T08:05:49.116Z,6332.00
2019-01-30T08:06:49.103Z,6432.00
2019-01-30T08:07:49.095Z,6532.00
2019-01-30T08:08:49.726Z,6612.00
2019-01-30T08:09:49.070Z,6664.00
2019-01-30T08:10:49.051Z,6720.00
2019-01-30T08:11:49.052Z,6768.00
2019-01-30T08:12:49.034Z,6840.00
2019-01-30T08:13:49.027Z,6936.00
2019-01-30T08:14:49.038Z,7028.00
2019-01-30T08:15:49.010Z,7108.00
2019-01-30T08:16:48.998Z,7196.00
2019-01-30T08:17:48.991Z,7312.00
2019-01-30T08:18:48.976Z,7420.00
2019-01-30T08:19:48.969Z,7524.00
2019-01-30T08:20:48.960Z,7616.00
2019-01-30T08:21:48.958Z,7676.00
2019-01-30T08:22:49.063Z,7760.00
2019-01-30T08:23:48.927Z,7832.00
2019-01-30T08:24:49.214Z,7872.00
2019-01-30T08:25:49.417Z,7888.00
2019-01-30T08:26:48.971Z,7916.00
2019-01-30T08:27:48.983Z,7940.00
2019-01-30T08:28:49.135Z,7960.00
2019-01-30T08:29:48.873Z,8000.00
2019-01-30T08:30:48.943Z,8044.00
2019-01-30T08:31:48.934Z,8060.00
2019-01-30T08:32:48.869Z,8068.00
2019-01-30T08:33:48.838Z,8076.00
2019-01-30T08:34:48.825Z,8088.00
2019-01-30T08:35:48.814Z,8124.00
2019-01-30T08:36:48.806Z,8140.00
2019-01-30T08:37:48.796Z,8152.00
2019-01-30T08:38:49.149Z,8124.00
2019-01-30T08:39:48.782Z,8068.00
2019-01-30T08:40:48.769Z,7972.00
2019-01-30T08:41:48.768Z,7948.00
2019-01-30T08:42:48.765Z,7944.00
2019-01-30T08:43:48.747Z,7920.00
2019-01-30T08:44:48.735Z,8000.00
2019-01-30T08:45:48.720Z,8068.00
2019-01-30T08:46:48.716Z,8176.00
2019-01-30T08:47:48.711Z,8272.00
2019-01-30T08:48:48.705Z,8452.00
2019-01-30T08:49:48.692Z,8756.00
2019-01-30T08:50:48.685Z,8720.00
2019-01-30T08:51:48.681Z,8400.00
2019-01-30T08:52:48.665Z,8308.00
2019-01-30T08:53:48.658Z,8172.00
2019-01-30T08:54:48.646Z,7928.00
2019-01-30T08:55:48.643Z,7572.00
2019-01-30T08:56:52.970Z,7356.00
2019-01-30T08:57:48.616Z,7340.00
2019-01-30T08:58:48.618Z,7244.00
2019-01-30T08:59:48.600Z,7232.00
2019-01-30T09:00:48.603Z,7104.00
2019-01-30T09:01:48.596Z,7176.00
2019-01-30T09:02:48.584Z,6824.00
2019-01-30T09:03:48.617Z,6508.00
2019-01-30T09:04:48.571Z,6416.00
2019-01-30T09:05:48.564Z,6540.00
2019-01-30T09:06:48.557Z,6260.00
2019-01-30T09:07:48.551Z,6080.00
2019-01-30T09:08:48.536Z,5900.00
2019-01-30T09:09:48.533Z,6216.00
2019-01-30T09:10:48.526Z,5912.00
2019-01-30T09:11:48.510Z,5816.00
2019-01-30T09:12:48.511Z,5800.00
2019-01-30T09:13:48.496Z,5608.00
2019-01-30T09:14:48.491Z,5576.00
2019-01-30T09:15:48.484Z,5596.00
2019-01-30T09:16:48.486Z,5644.00
2019-01-30T09:17:48.468Z,5788.00
2019-01-30T09:18:48.464Z,5880.00
2019-01-30T09:19:48.578Z,6076.00
2019-01-30T09:20:48.445Z,6568.00
2019-01-30T09:21:48.433Z,6692.00
2019-01-30T09:22:48.443Z,6648.00
2019-01-30T09:23:48.425Z,6784.00
2019-01-30T09:24:48.416Z,6884.00
2019-01-30T09:25:48.410Z,7108.00
2019-01-30T09:26:48.398Z,7200.00
2019-01-30T09:27:48.395Z,7008.00
2019-01-30T09:28:48.384Z,6932.00
2019-01-30T09:29:48.375Z,6980.00
2019-01-30T09:30:48.366Z,6924.00
2019-01-30T09:31:48.351Z,7140.00
2019-01-30T09:32:48.349Z,7196.00
2019-01-30T09:33:48.342Z,7472.00
2019-01-30T09:34:48.335Z,7980.00
2019-01-30T09:35:48.318Z,8844.00
2019-01-30T09:36:48.397Z,9032.00
2019-01-30T09:37:48.329Z,8660.00
2019-01-30T09:38:48.319Z,9080.00
2019-01-30T09:39:48.677Z,10276.00
2019-01-30T09:40:48.335Z,9412.00
2019-01-30T09:41:48.288Z,9008.00
2019-01-30T09:42:48.408Z,7640.00
2019-01-30T09:43:48.268Z,7104.00
2019-01-30T09:44:48.263Z,7800.00
2019-01-30T09:45:48.269Z,9032.00
2019-01-30T09:46:48.262Z,8740.00
2019-01-30T09:47:48.248Z,9856.00
2019-01-30T09:48:48.229Z,10952.00
2019-01-30T09:49:48.229Z,10580.00
2019-01-30T09:50:48.222Z,10680.00
2019-01-30T09:51:48.215Z,10560.00
2019-01-30T09:52:48.210Z,10300.00
2019-01-30T09:53:48.233Z,10520.00
2019-01-30T09:54:48.204Z,11176.00
2019-01-30T09:55:48.204Z,10292.00
2019-01-30T09:56:48.209Z,9760.00
2019-01-30T09:57:48.191Z,8804.00
2019-01-30T09:58:48.196Z,7648.00
2019-01-30T09:59:48.180Z,7952.00
2019-01-30T10:00:48.175Z,8408.00
2019-01-30T10:01:48.177Z,8384.00
2019-01-30T10:02:48.168Z,7408.00
2019-01-30T10:03:48.171Z,7816.00
2019-01-30T10:04:48.154Z,8596.00
2019-01-30T10:05:48.156Z,11796.00
2019-01-30T10:06:48.152Z,11420.00
2019-01-30T10:07:48.152Z,8544.00
2019-01-30T10:08:48.142Z,9512.00
2019-01-30T10:09:48.130Z,10576.00
2019-01-30T10:10:48.122Z,10228.00
2019-01-30T10:11:48.127Z,12036.00
2019-01-30T10:12:48.124Z,12084.00
2019-01-30T10:13:48.109Z,12128.00
2019-01-30T10:14:48.112Z,11844.00
2019-01-30T10:15:48.111Z,11876.00
2019-01-30T10:16:48.110Z,10044.00
2019-01-30T10:17:48.099Z,15176.00
2019-01-30T10:18:48.097Z,16176.00
2019-01-30T10:19:48.081Z,15600.00
2019-01-30T10:20:48.084Z,16768.00
2019-01-30T10:21:48.074Z,16476.00
2019-01-30T10:22:48.075Z,17664.00
2019-01-30T10:23:48.071Z,15584.00
2019-01-30T10:24:50.464Z,15648.00
2019-01-30T10:25:48.082Z,16468.00
2019-01-30T10:26:48.058Z,17152.00
2019-01-30T10:27:48.049Z,17152.00
2019-01-30T10:28:48.055Z,15844.00
2019-01-30T10:29:48.083Z,15632.00
2019-01-30T10:30:48.082Z,14880.00
2019-01-30T10:31:50.367Z,16068.00
2019-01-30T10:32:48.030Z,15404.00
2019-01-30T10:33:48.028Z,16408.00
2019-01-30T10:34:48.046Z,15456.00
2019-01-30T10:35:48.043Z,15464.00
2019-01-30T10:36:48.033Z,14512.00
2019-01-30T10:37:48.016Z,14492.00
2019-01-30T10:38:48.004Z,13868.00
2019-01-30T10:39:48.006Z,14064.00
2019-01-30T10:40:47.999Z,12168.00
2019-01-30T10:41:47.997Z,11464.00
2019-01-30T10:42:48.006Z,12092.00
2019-01-30T10:43:47.981Z,12476.00
2019-01-30T10:44:47.983Z,11676.00
2019-01-30T10:45:47.975Z,12564.00
2019-01-30T10:46:47.970Z,13144.00
2019-01-30T10:47:47.965Z,12680.00
2019-01-30T10:48:48.005Z,12444.00
2019-01-30T10:49:47.980Z,11176.00
2019-01-30T10:50:47.943Z,9968.00
2019-01-30T10:51:47.962Z,9040.00
2019-01-30T10:52:47.934Z,9892.00
2019-01-30T10:53:48.315Z,11152.00
2019-01-30T10:54:47.927Z,10068.00
2019-01-30T10:55:47.923Z,8704.00
2019-01-30T10:56:47.917Z,8560.00
2019-01-30T10:57:47.911Z,8188.00
2019-01-30T10:58:47.896Z,8540.00
2019-01-30T10:59:47.892Z,7880.00
2019-01-30T11:00:47.892Z,7560.00
2019-01-30T11:01:47.884Z,8200.00
2019-01-30T11:02:47.887Z,8548.00
2019-01-30T11:03:57.025Z,11092.00
2019-01-30T11:04:47.868Z,11916.00
2019-01-30T11:05:47.852Z,12184.00
2019-01-30T11:06:47.855Z,10672.00
2019-01-30T11:07:47.843Z,9148.00
2019-01-30T11:08:47.846Z,8860.00
2019-01-30T11:09:47.836Z,9608.00
2019-01-30T11:10:48.141Z,11160.00
2019-01-30T11:11:47.821Z,12996.00
2019-01-30T11:12:47.817Z,12804.00
2019-01-30T11:13:47.802Z,12796.00
2019-01-30T11:14:47.810Z,14880.00
2019-01-30T11:15:47.794Z,14880.00
2019-01-30T11:16:47.828Z,15420.00
2019-01-30T11:17:47.787Z,14416.00
2019-01-30T11:18:47.763Z,11280.00
2019-01-30T11:19:47.769Z,10892.00
2019-01-30T11:20:47.762Z,11328.00
2019-01-30T11:21:47.803Z,12792.00
2019-01-30T11:22:50.328Z,11672.00
2019-01-30T11:23:47.739Z,10528.00
2019-01-30T11:24:47.740Z,12652.00
2019-01-30T11:25:47.732Z,13776.00
2019-01-30T11:26:47.721Z,14868.00
2019-01-30T11:27:47.716Z,15668.00
2019-01-30T11:28:47.709Z,15432.00
2019-01-30T11:29:47.693Z,14428.00
2019-01-30T11:30:47.696Z,13260.00
2019-01-30T11:31:47.689Z,13012.00
2019-01-30T11:32:47.682Z,12884.00
2019-01-30T11:33:47.675Z,11852.00
2019-01-30T11:34:47.670Z,11124.00
2019-01-30T11:35:47.662Z,11684.00
2019-01-30T11:36:47.658Z,12952.00
2019-01-30T11:37:47.641Z,14524.00
2019-01-30T11:38:47.644Z,16076.00
2019-01-30T11:39:47.627Z,15576.00
2019-01-30T11:40:47.630Z,13876.00
2019-01-30T11:41:47.624Z,14644.00
2019-01-30T11:42:47.616Z,14684.00
2019-01-30T11:43:47.610Z,13940.00
2019-01-30T11:44:47.602Z,15080.00
2019-01-30T11:45:47.670Z,15552.00
2019-01-30T11:46:47.592Z,16768.00
2019-01-30T11:47:47.574Z,15840.00
2019-01-30T11:48:56.260Z,17320.00
2019-01-30T11:49:47.583Z,16584.00
2019-01-30T11:50:47.564Z,15700.00
2019-01-30T11:51:47.557Z,15540.00
2019-01-30T11:52:47.552Z,15196.00
2019-01-30T11:53:47.547Z,15084.00
2019-01-30T11:54:47.540Z,15412.00
2019-01-30T11:55:47.535Z,15388.00
2019-01-30T11:56:47.529Z,16460.00
2019-01-30T11:57:47.523Z,18144.00
2019-01-30T11:58:47.514Z,17536.00
2019-01-30T11:59:47.510Z,17176.00
2019-01-30T12:00:47.512Z,16852.00
2019-01-30T12:01:47.497Z,17600.00
2019-01-30T12:02:48.282Z,17504.00
2019-01-30T12:03:47.485Z,16676.00
2019-01-30T12:04:47.481Z,15912.00
2019-01-30T12:05:47.480Z,15820.00
2019-01-30T12:06:47.463Z,15104.00
2019-01-30T12:07:47.461Z,14736.00
2019-01-30T12:08:47.453Z,14140.00
2019-01-30T12:09:47.448Z,14384.00
2019-01-30T12:10:47.447Z,15448.00
2019-01-30T12:11:47.441Z,15180.00
2019-01-30T12:12:48.723Z,12640.00
2019-01-30T12:13:47.430Z,11296.00
2019-01-30T12:14:47.418Z,11656.00
2019-01-30T12:15:47.420Z,10452.00
2019-01-30T12:16:47.406Z,9624.00
2019-01-30T12:17:47.409Z,8564.00
2019-01-30T12:18:47.401Z,8520.00
2019-01-30T12:19:47.393Z,9268.00
2019-01-30T12:20:47.386Z,10232.00
2019-01-30T12:21:47.380Z,11372.00
2019-01-30T12:22:47.376Z,14828.00
2019-01-30T12:23:47.382Z,16060.00
2019-01-30T12:24:47.366Z,15636.00
2019-01-30T12:25:47.360Z,14664.00
2019-01-30T12:26:47.358Z,15344.00
2019-01-30T12:27:47.341Z,15496.00
2019-01-30T12:28:47.336Z,16548.00
2019-01-30T12:29:47.331Z,16064.00
2019-01-30T12:30:47.323Z,15664.00
2019-01-30T12:31:47.313Z,15404.00
2019-01-30T12:32:47.304Z,15552.00
2019-01-30T12:33:47.307Z,15744.00
2019-01-30T12:34:47.294Z,15000.00
2019-01-30T12:35:47.288Z,14312.00
2019-01-30T12:36:47.301Z,14516.00
2019-01-30T12:37:47.275Z,14444.00
2019-01-30T12:38:47.270Z,13448.00